createdAt,value
2019-01-13T00:00:11.457Z,62.87
2019-01-13T00:00:45.195Z,63.06
2019-01-13T00:01:26.558Z,62.77
2019-01-13T00:02:07.618Z,63.06
2019-01-13T00:02:48.245Z,62.87
2019-01-13T00:03:29.161Z,62.87
2019-01-13T00:04:09.833Z,62.77
2019-01-13T00:04:50.452Z,62.97
2019-01-13T00:05:31.586Z,62.68
2019-01-13T00:06:12.191Z,62.68
2019-01-13T00:06:52.887Z,62.77
2019-01-13T00:07:33.502Z,62.87
2019-01-13T00:08:14.293Z,62.87
2019-01-13T00:08:54.964Z,62.4
2019-01-13T00:09:35.602Z,62.3
2019-01-13T00:11:50.901Z,62.59
2019-01-13T00:12:35.493Z,62.87
2019-01-13T00:13:12.415Z,62.97
2019-01-13T00:13:52.842Z,62.97
2019-01-13T00:14:33.438Z,62.49
2019-01-13T00:15:14.038Z,62.49
2019-01-13T00:15:54.657Z,62.49
2019-01-13T00:16:35.292Z,62.2
2019-01-13T00:17:16.014Z,62.49
2019-01-13T00:17:56.630Z,62.59
2019-01-13T00:18:37.282Z,62.49
2019-01-13T00:19:17.946Z,62.49
2019-01-13T00:19:58.772Z,62.49
2019-01-13T00:20:39.248Z,62.37
2019-01-13T00:21:19.815Z,62.84
2019-01-13T00:22:00.421Z,62.84
2019-01-13T00:22:41.050Z,62.46
2019-01-13T00:23:23.482Z,62.59
2019-01-13T00:24:04.082Z,62.49
2019-01-13T00:24:44.731Z,62.49
2019-01-13T00:25:25.383Z,62.77
2019-01-13T00:26:06.083Z,62.68
2019-01-13T00:26:46.582Z,62.59
2019-01-13T00:27:27.200Z,62.59
2019-01-13T00:28:07.808Z,62.11
2019-01-13T00:28:48.453Z,61.98
2019-01-13T00:29:29.090Z,62.4
2019-01-13T00:30:09.706Z,62.37
2019-01-13T00:30:50.388Z,62.49
2019-01-13T00:31:30.943Z,62.4
2019-01-13T00:32:11.562Z,62.17
2019-01-13T00:32:52.232Z,61.88
2019-01-13T00:33:32.905Z,62.08
2019-01-13T00:34:13.537Z,61.69
2019-01-13T00:34:54.168Z,62.01
2019-01-13T00:35:35.066Z,61.91
2019-01-13T00:36:15.796Z,61.88
2019-01-13T00:36:56.404Z,61.98
2019-01-13T00:37:37.186Z,61.91
2019-01-13T00:38:17.763Z,61.91
2019-01-13T00:38:58.300Z,62.2
2019-01-13T00:39:38.946Z,62.27
2019-01-13T00:40:19.654Z,62.27
2019-01-13T00:41:00.363Z,62.4
2019-01-13T00:41:40.963Z,61.98
2019-01-13T00:42:21.586Z,62.17
2019-01-13T00:43:02.203Z,61.72
2019-01-13T00:43:42.819Z,61.91
2019-01-13T00:44:23.432Z,62.11
2019-01-13T00:45:04.050Z,62.11
2019-01-13T00:45:44.894Z,62.3
2019-01-13T00:46:25.604Z,61.98
2019-01-13T00:47:06.253Z,62.11
2019-01-13T00:47:46.891Z,62.2
2019-01-13T00:48:27.536Z,61.72
2019-01-13T00:49:08.196Z,61.72
2019-01-13T00:49:48.938Z,61.88
2019-01-13T00:50:29.556Z,62.17
2019-01-13T00:51:10.196Z,61.79
2019-01-13T00:51:50.954Z,61.98
2019-01-13T00:52:31.560Z,61.72
2019-01-13T00:53:12.188Z,61.82
2019-01-13T00:53:53.151Z,61.6
2019-01-13T00:54:33.713Z,62.08
2019-01-13T00:55:14.399Z,62.17
2019-01-13T00:55:55.058Z,61.69
2019-01-13T00:56:35.680Z,62.08
2019-01-13T00:57:16.294Z,62.01
2019-01-13T00:57:56.910Z,61.69
2019-01-13T00:58:37.554Z,61.6
2019-01-13T00:59:18.201Z,61.79
2019-01-13T00:59:58.833Z,62.27
2019-01-13T01:00:39.512Z,62.01
2019-01-13T01:01:20.140Z,62.08
2019-01-13T01:02:00.746Z,61.79
2019-01-13T01:02:41.379Z,62.08
2019-01-13T01:03:21.994Z,61.63
2019-01-13T01:04:02.653Z,61.98
2019-01-13T01:04:43.287Z,62.08
2019-01-13T01:05:23.920Z,62.08
2019-01-13T01:06:04.571Z,62.27
2019-01-13T01:06:45.194Z,61.88
2019-01-13T01:07:25.826Z,61.51
2019-01-13T01:08:06.468Z,61.79
2019-01-13T01:08:47.048Z,61.69
2019-01-13T01:09:27.710Z,61.79
2019-01-13T01:10:08.350Z,61.6
2019-01-13T01:10:48.957Z,61.6
2019-01-13T01:11:29.598Z,61.98
2019-01-13T01:12:10.220Z,61.98
2019-01-13T01:12:50.858Z,62.08
2019-01-13T01:13:31.477Z,61.98
2019-01-13T01:14:12.200Z,61.79
2019-01-13T01:14:52.780Z,61.88
2019-01-13T01:15:33.382Z,61.79
2019-01-13T01:16:14.028Z,61.69
2019-01-13T01:16:54.668Z,61.51
2019-01-13T01:17:35.306Z,61.79
2019-01-13T01:18:15.906Z,61.51
2019-01-13T01:18:56.532Z,61.79
2019-01-13T01:19:37.179Z,62.17
2019-01-13T01:20:17.795Z,62.08
2019-01-13T01:20:58.434Z,61.6
2019-01-13T01:21:39.055Z,61.88
2019-01-13T01:22:19.712Z,61.6
2019-01-13T01:23:00.390Z,61.51
2019-01-13T01:23:41.004Z,61.79
2019-01-13T01:24:21.611Z,61.79
2019-01-13T01:25:02.328Z,61.6
2019-01-13T01:25:43.351Z,61.79
2019-01-13T01:26:23.822Z,61.79
2019-01-13T01:27:04.434Z,61.51
2019-01-13T01:27:45.036Z,61.79
2019-01-13T01:28:25.643Z,62.27
2019-01-13T01:29:06.336Z,61.51
2019-01-13T01:29:47.002Z,61.41
2019-01-13T01:30:33.371Z,61.69
2019-01-13T01:31:08.305Z,61.41
2019-01-13T01:31:48.918Z,61.22
2019-01-13T01:32:29.554Z,61.22
2019-01-13T01:33:10.192Z,61.31
2019-01-13T01:33:50.812Z,61.41
2019-01-13T01:34:31.413Z,61.02
2019-01-13T01:35:12.014Z,61.6
2019-01-13T01:35:52.628Z,61.79
2019-01-13T01:36:33.272Z,61.69
2019-01-13T01:37:13.884Z,61.12
2019-01-13T01:37:54.486Z,60.83
2019-01-13T01:38:35.124Z,61.02
2019-01-13T01:39:15.744Z,61.22
2019-01-13T01:39:56.354Z,61.41
2019-01-13T01:40:36.966Z,61.41
2019-01-13T01:41:17.584Z,61.69
2019-01-13T01:41:58.204Z,61.98
2019-01-13T01:42:38.799Z,62.08
2019-01-13T01:43:19.394Z,61.79
2019-01-13T01:43:59.992Z,61.51
2019-01-13T01:44:40.604Z,61.12
2019-01-13T01:45:21.196Z,61.22
2019-01-13T01:46:01.789Z,61.12
2019-01-13T01:46:42.434Z,61.12
2019-01-13T01:47:23.042Z,61.41
2019-01-13T01:48:03.635Z,61.22
2019-01-13T01:48:44.252Z,61.51
2019-01-13T01:49:24.870Z,61.98
2019-01-13T01:50:05.496Z,61.6
2019-01-13T01:50:46.111Z,61.6
2019-01-13T01:51:26.714Z,61.51
2019-01-13T01:52:07.354Z,60.93
2019-01-13T01:52:47.988Z,61.41
2019-01-13T01:53:28.658Z,60.93
2019-01-13T01:54:09.279Z,61.31
2019-01-13T01:54:49.896Z,61.22
2019-01-13T01:55:30.569Z,61.31
2019-01-13T01:56:11.137Z,61.22
2019-01-13T01:56:51.756Z,61.02
2019-01-13T01:57:32.382Z,61.25
2019-01-13T01:58:13.011Z,61.31
2019-01-13T01:58:53.661Z,61.22
2019-01-13T01:59:34.311Z,61.31
2019-01-13T02:00:14.950Z,61.51
2019-01-13T02:00:56.047Z,61.51
2019-01-13T02:01:36.158Z,61.41
2019-01-13T02:02:16.770Z,61.41
2019-01-13T02:02:57.395Z,61.22
2019-01-13T02:03:38.012Z,61.51
2019-01-13T02:04:18.622Z,61.22
2019-01-13T02:04:59.284Z,61.12
2019-01-13T02:05:39.898Z,61.41
2019-01-13T02:06:20.534Z,61.41
2019-01-13T02:07:01.153Z,61.41
2019-01-13T02:07:41.771Z,61.51
2019-01-13T02:08:22.418Z,61.51
2019-01-13T02:09:03.052Z,61.31
2019-01-13T02:09:43.692Z,61.31
2019-01-13T02:10:24.290Z,61.31
2019-01-13T02:11:04.910Z,61.22
2019-01-13T02:11:45.556Z,61.12
2019-01-13T02:12:26.208Z,61.31
2019-01-13T02:13:06.808Z,61.31
2019-01-13T02:13:47.414Z,60.64
2019-01-13T02:14:28.033Z,60.83
2019-01-13T02:15:08.630Z,60.83
2019-01-13T02:15:49.264Z,60.45
2019-01-13T02:16:29.962Z,60.45
2019-01-13T02:17:10.578Z,60.93
2019-01-13T02:17:51.182Z,61.31
2019-01-13T02:18:31.832Z,61.12
2019-01-13T02:19:12.426Z,61.22
2019-01-13T02:19:53.056Z,61.69
2019-01-13T02:20:33.670Z,60.93
2019-01-13T02:21:14.302Z,60.64
2019-01-13T02:21:54.928Z,60.26
2019-01-13T02:22:35.552Z,60.55
2019-01-13T02:23:16.184Z,60.64
2019-01-13T02:23:56.826Z,60.26
2019-01-13T02:24:37.446Z,60.64
2019-01-13T02:25:18.048Z,60.74
2019-01-13T02:25:58.692Z,60.55
2019-01-13T02:26:39.300Z,60.35
2019-01-13T02:27:19.921Z,60.45
2019-01-13T02:28:00.562Z,60.55
2019-01-13T02:28:41.167Z,60.64
2019-01-13T02:29:21.772Z,61.31
2019-01-13T02:30:02.375Z,60.64
2019-01-13T02:30:48.938Z,60.74
2019-01-13T02:31:23.620Z,60.45
2019-01-13T02:32:04.249Z,60.35
2019-01-13T02:32:44.880Z,60.45
2019-01-13T02:33:25.512Z,60.55
2019-01-13T02:34:06.114Z,60.45
2019-01-13T02:34:46.740Z,60.26
2019-01-13T02:35:27.324Z,61.12
2019-01-13T02:36:07.950Z,60.55
2019-01-13T02:36:48.547Z,60.55
2019-01-13T02:37:29.146Z,60.35
2019-01-13T02:38:09.749Z,60.16
2019-01-13T02:38:50.392Z,60.26
2019-01-13T02:39:31.004Z,60.64
2019-01-13T02:40:11.610Z,60.55
2019-01-13T02:40:52.217Z,60.64
2019-01-13T02:41:32.849Z,61.31
2019-01-13T02:42:13.456Z,60.93
2019-01-13T02:42:54.088Z,60.35
2019-01-13T02:43:34.714Z,60.35
2019-01-13T02:44:15.314Z,60.64
2019-01-13T02:44:55.916Z,59.97
2019-01-13T02:45:36.524Z,60.74
2019-01-13T02:46:17.159Z,60.35
2019-01-13T02:46:57.768Z,60.35
2019-01-13T02:47:38.374Z,60.45
2019-01-13T02:48:18.996Z,60.26
2019-01-13T02:48:59.595Z,60.45
2019-01-13T02:49:40.195Z,60.93
2019-01-13T02:50:20.830Z,60.64
2019-01-13T02:51:01.442Z,60.74
2019-01-13T02:51:42.074Z,60.16
2019-01-13T02:52:22.702Z,60.45
2019-01-13T02:53:03.321Z,60.35
2019-01-13T02:53:43.956Z,60.26
2019-01-13T02:54:24.590Z,60.64
2019-01-13T02:55:05.203Z,60.64
2019-01-13T02:55:45.804Z,60.35
2019-01-13T02:56:26.411Z,60.45
2019-01-13T02:57:07.066Z,60.26
2019-01-13T02:57:47.678Z,60.26
2019-01-13T02:58:28.298Z,60.35
2019-01-13T02:59:08.916Z,60.74
2019-01-13T02:59:49.551Z,60.35
2019-01-13T03:00:30.142Z,60.55
2019-01-13T03:01:10.790Z,60.35
2019-01-13T03:01:51.382Z,60.64
2019-01-13T03:02:31.978Z,60.35
2019-01-13T03:03:12.646Z,60.55
2019-01-13T03:03:53.299Z,60.64
2019-01-13T03:04:33.936Z,60.64
2019-01-13T03:05:14.558Z,60.06
2019-01-13T03:05:55.171Z,60.06
2019-01-13T03:06:35.810Z,60.55
2019-01-13T03:07:16.419Z,60.35
2019-01-13T03:07:57.024Z,60.16
2019-01-13T03:08:37.653Z,60.35
2019-01-13T03:09:18.266Z,60.26
2019-01-13T03:09:58.859Z,60.16
2019-01-13T03:10:39.469Z,60.45
2019-01-13T03:11:20.065Z,60.45
2019-01-13T03:12:00.676Z,60.35
2019-01-13T03:12:41.306Z,59.88
2019-01-13T03:13:21.916Z,60.35
2019-01-13T03:14:02.519Z,60.45
2019-01-13T03:14:43.128Z,60.35
2019-01-13T03:15:23.729Z,60.64
2019-01-13T03:16:04.348Z,60.16
2019-01-13T03:16:44.953Z,60.64
2019-01-13T03:17:25.589Z,60.64
2019-01-13T03:18:06.221Z,60.64
2019-01-13T03:18:46.855Z,60.35
2019-01-13T03:19:27.492Z,60.06
2019-01-13T03:20:08.127Z,60.16
2019-01-13T03:20:48.741Z,60.35
2019-01-13T03:21:29.355Z,60.06
2019-01-13T03:22:09.952Z,60.35
2019-01-13T03:22:50.605Z,60.55
2019-01-13T03:23:31.210Z,60.45
2019-01-13T03:24:12.770Z,60.06
2019-01-13T03:24:53.604Z,59.97
2019-01-13T03:25:34.205Z,60.06
2019-01-13T03:26:14.842Z,60.26
2019-01-13T03:26:55.477Z,60.16
2019-01-13T03:27:36.100Z,60.16
2019-01-13T03:28:16.708Z,60.16
2019-01-13T03:28:57.336Z,59.97
2019-01-13T03:29:37.961Z,60.06
2019-01-13T03:30:18.573Z,60.64
2019-01-13T03:31:11.019Z,60.16
2019-01-13T03:31:39.766Z,60.16
2019-01-13T03:32:20.373Z,59.78
2019-01-13T03:33:01.011Z,60.35
2019-01-13T03:33:41.710Z,60.16
2019-01-13T03:34:22.371Z,60.16
2019-01-13T03:35:03.005Z,60.35
2019-01-13T03:35:43.586Z,60.16
2019-01-13T03:36:24.206Z,60.16
2019-01-13T03:37:04.810Z,60.35
2019-01-13T03:37:45.404Z,59.78
2019-01-13T03:38:26.062Z,59.97
2019-01-13T03:39:06.682Z,60.16
2019-01-13T03:39:47.328Z,59.97
2019-01-13T03:40:27.948Z,60.45
2019-01-13T03:41:08.552Z,59.97
2019-01-13T03:41:49.167Z,60.45
2019-01-13T03:42:29.801Z,60.06
2019-01-13T03:43:10.410Z,59.69
2019-01-13T03:43:51.024Z,59.97
2019-01-13T03:44:31.670Z,60.26
2019-01-13T03:45:12.246Z,60.06
2019-01-13T03:45:52.858Z,59.88
2019-01-13T03:46:33.482Z,60.26
2019-01-13T03:47:14.125Z,60.26
2019-01-13T03:47:54.800Z,60.35
2019-01-13T03:48:35.354Z,59.88
2019-01-13T03:49:15.969Z,59.97
2019-01-13T03:49:56.596Z,60.06
2019-01-13T03:50:37.198Z,59.97
2019-01-13T03:51:17.824Z,60.45
2019-01-13T03:51:58.414Z,59.78
2019-01-13T03:52:39.014Z,60.06
2019-01-13T03:53:19.643Z,59.69
2019-01-13T03:54:00.247Z,59.49
2019-01-13T03:54:40.864Z,59.49
2019-01-13T03:55:21.579Z,59.69
2019-01-13T03:56:02.168Z,59.69
2019-01-13T03:56:42.796Z,59.49
2019-01-13T03:57:23.408Z,59.59
2019-01-13T03:58:04.029Z,59.4
2019-01-13T03:58:44.648Z,59.97
2019-01-13T03:59:25.297Z,60.45
2019-01-13T04:00:05.927Z,59.49
2019-01-13T04:00:46.578Z,59.59
2019-01-13T04:01:27.214Z,59.4
2019-01-13T04:02:07.838Z,59.49
2019-01-13T04:02:48.450Z,59.59
2019-01-13T04:03:29.055Z,59.78
2019-01-13T04:04:09.679Z,59.59
2019-01-13T04:04:50.294Z,60.35
2019-01-13T04:05:30.906Z,60.16
2019-01-13T04:06:11.509Z,59.78
2019-01-13T04:06:52.111Z,59.59
2019-01-13T04:07:32.715Z,59.78
2019-01-13T04:08:13.343Z,59.59
2019-01-13T04:08:53.942Z,59.49
2019-01-13T04:09:34.563Z,59.78
2019-01-13T04:10:15.179Z,59.69
2019-01-13T04:10:55.786Z,59.4
2019-01-13T04:11:36.405Z,59.2
2019-01-13T04:12:17.062Z,59.4
2019-01-13T04:12:57.697Z,59.4
2019-01-13T04:13:38.299Z,59.2
2019-01-13T04:14:18.899Z,59.3
2019-01-13T04:14:59.505Z,59.88
2019-01-13T04:15:40.139Z,59.59
2019-01-13T04:16:20.748Z,59.59
2019-01-13T04:17:01.459Z,59.49
2019-01-13T04:17:42.092Z,59.3
2019-01-13T04:18:22.778Z,59.69
2019-01-13T04:19:03.393Z,59.78
2019-01-13T04:19:44.101Z,60.06
2019-01-13T04:20:24.716Z,60.06
2019-01-13T04:21:05.388Z,60.16
2019-01-13T04:21:46.088Z,60.06
2019-01-13T04:22:26.736Z,59.88
2019-01-13T04:23:07.355Z,60.35
2019-01-13T04:23:47.965Z,60.64
2019-01-13T04:24:28.578Z,60.45
2019-01-13T04:25:09.207Z,60.35
2019-01-13T04:25:49.841Z,60.19
2019-01-13T04:26:30.605Z,60.35
2019-01-13T04:27:11.325Z,60.35
2019-01-13T04:27:52.035Z,60.29
2019-01-13T04:28:32.764Z,60.55
2019-01-13T04:29:13.412Z,60.58
2019-01-13T04:29:54.085Z,60.77
2019-01-13T04:30:34.770Z,60.58
2019-01-13T04:31:15.399Z,60.67
2019-01-13T04:31:56.085Z,60.35
2019-01-13T04:32:36.711Z,60.67
2019-01-13T04:33:17.361Z,60.64
2019-01-13T04:33:58.522Z,60.67
2019-01-13T04:34:39.204Z,60.45
2019-01-13T04:35:19.889Z,60.55
2019-01-13T04:36:00.498Z,60.64
2019-01-13T04:36:41.119Z,60.38
2019-01-13T04:37:22.268Z,60.58
2019-01-13T04:38:02.907Z,60.58
2019-01-13T04:38:43.749Z,60.64
2019-01-13T04:39:24.537Z,60.58
2019-01-13T04:40:05.217Z,60.26
2019-01-13T04:40:45.828Z,60.58
2019-01-13T04:41:26.478Z,60.38
2019-01-13T04:42:07.099Z,60.38
2019-01-13T04:42:47.763Z,60.29
2019-01-13T04:43:28.427Z,60.55
2019-01-13T04:44:09.085Z,60.38
2019-01-13T04:44:49.739Z,60.67
2019-01-13T04:45:30.359Z,60.58
2019-01-13T04:46:10.978Z,60.86
2019-01-13T04:46:51.601Z,61.22
2019-01-13T04:47:32.255Z,61.34
2019-01-13T04:48:12.889Z,61.25
2019-01-13T04:48:53.518Z,60.86
2019-01-13T04:49:34.155Z,61.15
2019-01-13T04:50:14.843Z,60.67
2019-01-13T04:50:55.560Z,60.58
2019-01-13T04:51:36.315Z,60.74
2019-01-13T04:52:16.965Z,60.74
2019-01-13T04:52:57.623Z,60.58
2019-01-13T04:53:38.325Z,60.67
2019-01-13T04:54:18.989Z,60.67
2019-01-13T04:54:59.613Z,60.58
2019-01-13T04:55:40.248Z,60.58
2019-01-13T04:56:20.869Z,60.29
2019-01-13T04:57:01.529Z,60.58
2019-01-13T04:57:42.131Z,60.29
2019-01-13T04:58:22.735Z,60.58
2019-01-13T04:59:03.397Z,60
2019-01-13T04:59:44.137Z,60.38
2019-01-13T05:00:24.757Z,60.38
2019-01-13T05:01:05.420Z,60.38
2019-01-13T05:01:46.089Z,60.38
2019-01-13T05:02:26.731Z,60.58
2019-01-13T05:03:07.351Z,60.67
2019-01-13T05:03:47.978Z,60.58
2019-01-13T05:04:28.650Z,60.48
2019-01-13T05:05:09.400Z,60.77
2019-01-13T05:05:50.027Z,60.45
2019-01-13T05:06:30.735Z,60.67
2019-01-13T05:07:11.462Z,60.64
2019-01-13T05:07:52.213Z,60.55
2019-01-13T05:08:32.845Z,60.29
2019-01-13T05:09:13.493Z,60.29
2019-01-13T05:09:54.174Z,60.55
2019-01-13T05:10:34.815Z,60.29
2019-01-13T05:11:15.449Z,60.67
2019-01-13T05:11:56.079Z,60.26
2019-01-13T05:12:36.756Z,60.1
2019-01-13T05:13:17.408Z,60.58
2019-01-13T05:13:58.009Z,60.58
2019-01-13T05:14:38.693Z,60.38
2019-01-13T05:15:19.313Z,60.55
2019-01-13T05:15:59.935Z,60.19
2019-01-13T05:16:40.567Z,60.48
2019-01-13T05:17:21.245Z,60.38
2019-01-13T05:18:01.914Z,60.38
2019-01-13T05:18:42.599Z,60.19
2019-01-13T05:19:23.269Z,60.26
2019-01-13T05:20:03.888Z,60.29
2019-01-13T05:20:44.582Z,60.58
2019-01-13T05:21:25.257Z,60.48
2019-01-13T05:22:05.912Z,60.58
2019-01-13T05:22:46.553Z,60.38
2019-01-13T05:23:27.164Z,60.48
2019-01-13T05:24:07.802Z,60.48
2019-01-13T05:24:48.419Z,60.58
2019-01-13T05:25:29.061Z,60.67
2019-01-13T05:26:09.851Z,60.48
2019-01-13T05:26:50.539Z,60.48
2019-01-13T05:27:31.169Z,60.48
2019-01-13T05:28:11.936Z,60.67
2019-01-13T05:28:52.631Z,60.48
2019-01-13T05:29:33.285Z,60.64
2019-01-13T05:30:13.939Z,60.35
2019-01-13T05:30:54.634Z,60.64
2019-01-13T05:31:41.714Z,60.67
2019-01-13T05:32:15.979Z,60.48
2019-01-13T05:32:56.621Z,60.58
2019-01-13T05:33:37.261Z,60.48
2019-01-13T05:34:17.889Z,60.45
2019-01-13T05:34:58.532Z,60.64
2019-01-13T05:35:39.141Z,60.55
2019-01-13T05:36:19.754Z,60.48
2019-01-13T05:37:00.411Z,60.38
2019-01-13T05:37:41.037Z,60.45
2019-01-13T05:38:21.679Z,60.48
2019-01-13T05:39:02.279Z,60.38
2019-01-13T05:39:42.933Z,60.55
2019-01-13T05:40:23.549Z,60.64
2019-01-13T05:41:04.139Z,59.88
2019-01-13T05:41:44.757Z,60.06
2019-01-13T05:42:25.363Z,59.88
2019-01-13T05:43:06.018Z,59.88
2019-01-13T05:43:46.670Z,60.45
2019-01-13T05:44:27.307Z,60.16
2019-01-13T05:45:07.997Z,60.55
2019-01-13T05:45:48.699Z,59.97
2019-01-13T05:46:29.633Z,60.16
2019-01-13T05:47:10.301Z,60.26
2019-01-13T05:47:50.965Z,60.45
2019-01-13T05:48:31.733Z,60.45
2019-01-13T05:49:12.409Z,60.45
2019-01-13T05:49:53.041Z,59.97
2019-01-13T05:50:33.667Z,59.97
2019-01-13T05:51:14.299Z,60.26
2019-01-13T05:51:54.951Z,60.35
2019-01-13T05:52:35.567Z,60.35
2019-01-13T05:53:16.183Z,60.06
2019-01-13T05:53:56.801Z,59.78
2019-01-13T05:54:37.437Z,59.69
2019-01-13T05:55:18.137Z,59.69
2019-01-13T05:55:58.765Z,59.78
2019-01-13T05:56:39.378Z,59.69
2019-01-13T05:57:19.978Z,59.78
2019-01-13T05:58:00.627Z,59.69
2019-01-13T05:58:41.273Z,59.88
2019-01-13T05:59:21.879Z,59.69
2019-01-13T06:00:02.491Z,59.69
2019-01-13T06:00:43.097Z,59.49
2019-01-13T06:01:23.719Z,59.69
2019-01-13T06:02:04.325Z,59.3
2019-01-13T06:02:45.487Z,59.3
2019-01-13T06:03:26.083Z,59.3
2019-01-13T06:04:06.711Z,59.3
2019-01-13T06:04:47.345Z,59.49
2019-01-13T06:05:27.961Z,59.69
2019-01-13T06:06:08.591Z,59.49
2019-01-13T06:06:49.209Z,59.59
2019-01-13T06:07:29.821Z,59.49
2019-01-13T06:08:10.419Z,59.59
2019-01-13T06:08:51.049Z,59.59
2019-01-13T06:09:31.683Z,59.97
2019-01-13T06:10:12.315Z,59.59
2019-01-13T06:10:52.933Z,59.49
2019-01-13T06:11:33.576Z,59.59
2019-01-13T06:12:14.577Z,59.78
2019-01-13T06:12:55.287Z,59.78
2019-01-13T06:13:35.897Z,59.78
2019-01-13T06:14:16.507Z,59.59
2019-01-13T06:14:57.155Z,59.78
2019-01-13T06:15:37.801Z,59.78
2019-01-13T06:16:18.419Z,59.78
2019-01-13T06:16:59.021Z,59.78
2019-01-13T06:17:39.721Z,59.2
2019-01-13T06:18:20.365Z,59.88
2019-01-13T06:19:01.005Z,59.4
2019-01-13T06:19:41.629Z,59.3
2019-01-13T06:20:22.263Z,59.78
2019-01-13T06:21:02.884Z,59.3
2019-01-13T06:21:43.515Z,59.69
2019-01-13T06:22:24.165Z,59.59
2019-01-13T06:23:04.778Z,59.11
2019-01-13T06:23:45.431Z,59.3
2019-01-13T06:24:26.037Z,59.11
2019-01-13T06:25:06.649Z,59.88
2019-01-13T06:25:47.259Z,59.3
2019-01-13T06:26:27.993Z,59.59
2019-01-13T06:27:08.617Z,59.49
2019-01-13T06:27:49.456Z,59.88
2019-01-13T06:28:30.059Z,59.69
2019-01-13T06:29:10.655Z,59.78
2019-01-13T06:29:51.267Z,59.59
2019-01-13T06:30:31.869Z,59.78
2019-01-13T06:31:12.478Z,59.4
2019-01-13T06:31:56.366Z,59.01
2019-01-13T06:32:33.733Z,59.2
2019-01-13T06:33:14.389Z,59.11
2019-01-13T06:33:54.978Z,59.4
2019-01-13T06:34:35.583Z,59.2
2019-01-13T06:35:16.244Z,59.78
2019-01-13T06:35:56.835Z,59.88
2019-01-13T06:36:37.447Z,59.2
2019-01-13T06:37:18.049Z,59.97
2019-01-13T06:37:58.643Z,59.3
2019-01-13T06:38:39.261Z,59.97
2019-01-13T06:39:19.883Z,59.01
2019-01-13T06:40:00.526Z,59.2
2019-01-13T06:40:41.093Z,59.3
2019-01-13T06:41:21.713Z,59.2
2019-01-13T06:42:02.356Z,59.11
2019-01-13T06:42:43.009Z,59.2
2019-01-13T06:43:23.619Z,59.2
2019-01-13T06:44:04.241Z,58.92
2019-01-13T06:44:44.871Z,59.4
2019-01-13T06:45:25.503Z,59.69
2019-01-13T06:46:06.109Z,59.49
2019-01-13T06:46:46.751Z,59.4
2019-01-13T06:47:27.370Z,60.06
2019-01-13T06:48:07.965Z,59.01
2019-01-13T06:48:48.583Z,59.49
2019-01-13T06:49:29.229Z,59.11
2019-01-13T06:50:09.875Z,59.4
2019-01-13T06:50:50.503Z,59.2
2019-01-13T06:51:31.122Z,60.06
2019-01-13T06:52:11.750Z,59.49
2019-01-13T06:52:52.369Z,58.92
2019-01-13T06:53:32.993Z,58.73
2019-01-13T06:54:13.601Z,58.73
2019-01-13T06:54:54.236Z,59.49
2019-01-13T06:55:34.847Z,59.69
2019-01-13T06:56:15.465Z,58.92
2019-01-13T06:56:56.079Z,59.88
2019-01-13T06:57:36.716Z,59.2
2019-01-13T06:58:17.347Z,59.2
2019-01-13T06:58:57.956Z,59.2
2019-01-13T06:59:38.561Z,58.92
2019-01-13T07:00:19.167Z,59.2
2019-01-13T07:00:59.779Z,59.59
2019-01-13T07:01:40.376Z,60.06
2019-01-13T07:02:20.965Z,60.06
2019-01-13T07:03:01.584Z,59.3
2019-01-13T07:03:42.219Z,59.3
2019-01-13T07:04:22.825Z,59.4
2019-01-13T07:05:03.440Z,59.4
2019-01-13T07:05:44.075Z,59.97
2019-01-13T07:06:24.684Z,59.78
2019-01-13T07:07:05.323Z,59.97
2019-01-13T07:07:45.925Z,59.11
2019-01-13T07:08:26.541Z,59.3
2019-01-13T07:09:07.147Z,59.01
2019-01-13T07:09:47.837Z,59.4
2019-01-13T07:10:28.456Z,59.4
2019-01-13T07:11:09.074Z,59.2
2019-01-13T07:11:49.749Z,59.49
2019-01-13T07:12:30.357Z,59.11
2019-01-13T07:13:10.969Z,59.2
2019-01-13T07:13:51.655Z,59.11
2019-01-13T07:14:32.283Z,59.4
2019-01-13T07:15:12.911Z,59.59
2019-01-13T07:15:53.544Z,59.11
2019-01-13T07:16:34.160Z,59.49
2019-01-13T07:17:14.781Z,59.11
2019-01-13T07:17:55.376Z,59.4
2019-01-13T07:18:35.998Z,58.83
2019-01-13T07:19:16.653Z,59.2
2019-01-13T07:19:57.275Z,59.4
2019-01-13T07:20:37.890Z,59.88
2019-01-13T07:21:18.505Z,59.4
2019-01-13T07:21:59.133Z,60.06
2019-01-13T07:22:39.747Z,59.49
2019-01-13T07:23:20.345Z,59.11
2019-01-13T07:24:00.954Z,59.11
2019-01-13T07:24:41.557Z,59.2
2019-01-13T07:25:22.198Z,59.49
2019-01-13T07:26:02.855Z,59.3
2019-01-13T07:26:43.483Z,59.2
2019-01-13T07:27:24.103Z,59.3
2019-01-13T07:28:04.747Z,59.11
2019-01-13T07:28:45.359Z,58.83
2019-01-13T07:29:25.963Z,58.83
2019-01-13T07:30:06.565Z,59.4
2019-01-13T07:30:47.176Z,58.92
2019-01-13T07:31:27.803Z,59.3
2019-01-13T07:32:10.804Z,59.11
2019-01-13T07:32:49.035Z,59.2
2019-01-13T07:33:29.670Z,59.11
2019-01-13T07:34:10.276Z,59.2
2019-01-13T07:34:50.893Z,59.11
2019-01-13T07:35:31.584Z,59.3
2019-01-13T07:36:12.200Z,59.88
2019-01-13T07:36:52.855Z,59.01
2019-01-13T07:37:33.502Z,59.11
2019-01-13T07:38:14.138Z,59.69
2019-01-13T07:38:54.759Z,59.11
2019-01-13T07:39:35.350Z,59.01
2019-01-13T07:40:15.953Z,59.2
2019-01-13T07:40:56.557Z,59.97
2019-01-13T07:41:37.195Z,59.01
2019-01-13T07:42:17.939Z,59.2
2019-01-13T07:42:58.476Z,59.2
2019-01-13T07:43:39.122Z,59.2
2019-01-13T07:44:19.769Z,59.11
2019-01-13T07:45:00.798Z,59.01
2019-01-13T07:45:41.511Z,59.11
2019-01-13T07:46:22.161Z,59.11
2019-01-13T07:47:02.795Z,59.11
2019-01-13T07:47:43.457Z,58.73
2019-01-13T07:48:24.052Z,58.92
2019-01-13T07:49:04.659Z,59.2
2019-01-13T07:49:45.365Z,58.83
2019-01-13T07:50:25.967Z,59.3
2019-01-13T07:51:06.600Z,59.4
2019-01-13T07:51:47.279Z,59.49
2019-01-13T07:52:27.881Z,58.73
2019-01-13T07:53:08.508Z,58.63
2019-01-13T07:53:49.124Z,59.11
2019-01-13T07:54:29.918Z,59.11
2019-01-13T07:55:10.525Z,59.01
2019-01-13T07:55:51.318Z,59.01
2019-01-13T07:56:31.983Z,59.11
2019-01-13T07:57:12.624Z,59.01
2019-01-13T07:57:53.241Z,59.2
2019-01-13T07:58:33.858Z,59.2
2019-01-13T07:59:14.610Z,59.01
2019-01-13T07:59:55.242Z,58.92
2019-01-13T08:00:35.846Z,58.92
2019-01-13T08:01:16.479Z,59.3
2019-01-13T08:01:57.179Z,59.49
2019-01-13T08:02:37.870Z,58.73
2019-01-13T08:03:18.675Z,58.54
2019-01-13T08:03:59.160Z,58.73
2019-01-13T08:04:40.219Z,58.83
2019-01-13T08:05:20.425Z,59.2
2019-01-13T08:06:01.055Z,59.01
2019-01-13T08:06:41.691Z,59.2
2019-01-13T08:07:22.284Z,59.2
2019-01-13T08:08:02.897Z,59.01
2019-01-13T08:08:43.499Z,59.01
2019-01-13T08:09:24.274Z,58.83
2019-01-13T08:10:05.221Z,58.83
2019-01-13T08:10:45.864Z,58.54
2019-01-13T08:11:26.500Z,58.63
2019-01-13T08:12:07.113Z,58.34
2019-01-13T08:12:47.715Z,58.92
2019-01-13T08:13:28.309Z,58.92
2019-01-13T08:14:08.909Z,59.2
2019-01-13T08:14:49.536Z,59.11
2019-01-13T08:15:30.167Z,59.11
2019-01-13T08:16:10.794Z,58.83
2019-01-13T08:16:51.390Z,58.83
2019-01-13T08:17:31.979Z,58.83
2019-01-13T08:18:12.579Z,58.73
2019-01-13T08:18:53.196Z,58.54
2019-01-13T08:19:33.923Z,58.83
2019-01-13T08:20:14.581Z,58.73
2019-01-13T08:20:55.182Z,59.11
2019-01-13T08:21:35.841Z,58.63
2019-01-13T08:22:16.435Z,59.01
2019-01-13T08:22:57.052Z,58.34
2019-01-13T08:23:37.680Z,58.15
2019-01-13T08:24:18.314Z,59.01
2019-01-13T08:24:58.944Z,59.2
2019-01-13T08:25:39.558Z,59.2
2019-01-13T08:26:20.179Z,58.73
2019-01-13T08:27:00.810Z,58.83
2019-01-13T08:27:41.413Z,58.73
2019-01-13T08:28:22.017Z,58.83
2019-01-13T08:29:02.607Z,58.34
2019-01-13T08:29:43.187Z,58.83
2019-01-13T08:30:23.789Z,58.73
2019-01-13T08:31:04.412Z,58.83
2019-01-13T08:31:45.027Z,58.83
2019-01-13T08:32:25.659Z,58.34
2019-01-13T08:33:06.266Z,57.87
2019-01-13T08:33:46.876Z,57.97
2019-01-13T08:34:27.490Z,58.44
2019-01-13T08:35:08.120Z,57.87
2019-01-13T08:35:48.737Z,58.54
2019-01-13T08:36:29.342Z,58.73
2019-01-13T08:37:09.954Z,58.63
2019-01-13T08:37:50.559Z,58.25
2019-01-13T08:38:31.169Z,58.15
2019-01-13T08:39:11.795Z,58.44
2019-01-13T08:39:52.449Z,58.44
2019-01-13T08:40:33.104Z,58.34
2019-01-13T08:41:13.717Z,58.44
2019-01-13T08:41:54.348Z,58.15
2019-01-13T08:42:34.972Z,58.06
2019-01-13T08:43:15.613Z,58.83
2019-01-13T08:43:56.252Z,58.44
2019-01-13T08:44:36.868Z,58.44
2019-01-13T08:45:17.515Z,58.92
2019-01-13T08:45:58.180Z,58.25
2019-01-13T08:46:38.795Z,58.54